Time;durP1;ratioP1;P1;durP2;ratioP2;P2;SDS_P1;SDS_P2;PMS_P1;PMS_P2;Temp;Humidity;BMP_temperature;BMP_pressure;BME280_temperature;BME280_humidity;BME280_pressure;Samples;Min_cycle;Max_cycle;Signal;HPM_P1;HPM_P2
2022/10/18 00:01:55;;;;;;;12.07;8.20;;;19.40;93.00;;;19.35;61.02;99799.53;5078050;28;20040;-77
2022/10/18 00:04:21;;;;;;;8.95;6.85;;;19.40;92.90;;;19.36;60.71;99795.66;5061793;28;20447;-77
2022/10/18 00:06:48;;;;;;;8.50;6.40;;;19.40;92.90;;;19.37;61.62;99801.97;5079965;28;20037;-77
2022/10/18 00:09:14;;;;;;;11.30;7.80;;;19.40;93.20;;;19.36;61.81;99789.31;5070373;28;20041;-77
2022/10/18 00:11:40;;;;;;;9.70;6.88;;;19.40;93.20;;;19.37;61.60;99793.72;5078082;28;20042;-77
2022/10/18 00:14:06;;;;;;;9.90;7.78;;;19.40;93.20;;;19.36;61.06;99792.91;5077122;28;20062;-77
2022/10/18 00:16:32;;;;;;;15.65;8.57;;;19.40;93.00;;;19.35;60.86;99790.47;5064481;28;20040;-77
2022/10/18 00:18:58;;;;;;;9.10;7.18;;;19.40;92.90;;;19.36;60.72;99797.56;5064708;28;20044;-77
2022/10/18 00:21:24;;;;;;;11.32;6.53;;;19.40;92.90;;;19.30;61.45;99792.19;5078722;28;20041;-77
2022/10/18 00:23:51;;;;;;;9.32;7.28;;;19.40;93.20;;;19.33;61.90;99790.75;5066529;28;20038;-77
2022/10/18 00:26:23;;;;;;;11.07;7.68;;;19.40;93.20;;;19.35;61.78;99796.78;5052296;28;20119;-77
2022/10/18 00:28:53;;;;;;;10.90;6.78;;;19.40;93.20;;;19.31;61.49;99795.78;5061997;28;20044;-76
2022/10/18 00:31:31;;;;;;;12.52;8.77;;;19.30;93.10;;;19.33;60.85;99781.69;5067279;28;20090;-77
2022/10/18 00:34:09;;;;;;;8.68;6.65;;;19.30;93.00;;;19.33;60.72;99789.94;5057950;28;20399;-77
2022/10/18 00:36:34;;;;;;;12.65;8.18;;;19.30;92.90;;;19.33;60.96;99787.19;5073093;28;20036;-77
2022/10/18 00:39:02;;;;;;;10.75;7.07;;;19.30;92.90;;;19.28;61.76;99780.69;5079598;28;20450;-77
2022/10/18 00:41:30;;;;;;;8.30;6.30;;;19.30;93.10;;;19.30;61.85;99788.63;5036288;28;20518;-77
2022/10/18 00:44:26;;;;;;;11.10;8.20;;;19.30;93.20;;;19.31;61.46;99790.28;5064882;28;20044;-77
2022/10/18 00:46:57;;;;;;;10.68;8.30;;;19.30;93.10;;;19.28;61.08;99786.19;5080430;28;20461;-77
2022/10/18 00:49:33;;;;;;;11.23;6.80;;;19.30;93.00;;;19.28;60.85;99794.44;5060677;28;20426;-77
2022/10/18 00:52:07;;;;;;;9.18;7.30;;;19.30;92.90;;;19.27;60.70;99792.81;5069636;28;20040;-77
2022/10/18 00:54:36;;;;;;;9.60;7.03;;;19.30;92.90;;;19.31;61.28;99793.03;5059701;28;20405;-77
2022/10/18 00:57:03;;;;;;;8.98;7.15;;;19.30;93.10;;;19.30;61.63;99783.13;5062942;28;20044;-77
2022/10/18 00:59:29;;;;;;;10.48;7.65;;;19.30;93.20;;;19.32;61.48;99793.84;5045035;28;20062;-77
2022/10/18 01:01:55;;;;;;;11.45;7.47;;;19.20;93.10;;;19.25;61.17;99783.22;5064068;28;20041;-77
2022/10/18 01:04:22;;;;;;;11.93;7.82;;;19.30;93.00;;;19.27;60.89;99787.31;5062865;28;20043;-77
2022/10/18 01:07:01;;;;;;;11.05;7.65;;;19.30;92.90;;;19.24;60.86;99782.44;5072526;28;20158;-77
2022/10/18 01:09:53;;;;;;;11.20;6.85;;;19.20;92.90;;;19.26;61.23;99785.69;5079256;28;20100;-77
2022/10/18 01:13:01;;;;;;;10.52;7.80;;;19.30;93.10;;;19.26;61.61;99780.19;5081611;28;20055;-77
2022/10/18 01:15:30;;;;;;;12.15;7.20;;;19.30;93.10;;;19.27;61.45;99786.50;5081613;28;20151;-77
2022/10/18 01:18:46;;;;;;;13.73;8.18;;;19.20;93.10;;;19.26;61.05;99779.38;5067018;28;20064;-77
2022/10/18 01:21:28;;;;;;;11.30;7.47;;;19.20;92.90;;;19.26;60.78;99780.19;5069649;28;20049;-77
2022/10/18 01:24:15;;;;;;;11.52;7.55;;;19.30;92.90;;;19.24;60.60;99781.63;5083840;28;20460;-77
2022/10/18 01:27:20;;;;;;;11.05;6.95;;;19.30;92.90;;;19.25;61.26;99784.03;5071832;28;20045;-77
2022/10/18 01:30:21;;;;;;;11.02;7.22;;;19.20;93.10;;;19.24;61.32;99776.13;5083374;28;20036;-77
2022/10/18 01:32:50;;;;;;;12.38;6.97;;;19.20;93.10;;;19.25;61.17;99781.28;5082677;28;20540;-77
2022/10/18 01:35:23;;;;;;;10.32;7.78;;;19.20;93.40;;;19.21;60.94;99774.78;5063237;28;20460;-77
2022/10/18 01:37:49;;;;;;;12.60;7.00;;;19.20;92.90;;;19.22;60.85;99775.59;5084313;28;20036;-77
2022/10/18 01:40:18;;;;;;;8.07;6.35;;;19.20;92.90;;;19.23;60.66;99775.31;5065689;28;20058;-77
2022/10/18 01:42:45;;;;;;;10.50;7.68;;;19.20;92.90;;;19.17;61.34;99776.53;5067415;28;20108;-77
2022/10/18 01:45:12;;;;;;;9.43;6.95;;;19.20;93.10;;;19.18;61.78;99769.88;5069064;28;20044;-77
2022/10/18 01:47:38;;;;;;;11.65;7.00;;;19.20;93.10;;;19.21;61.55;99761.03;5065684;28;20586;-77
2022/10/18 01:50:05;;;;;;;10.50;7.03;;;19.20;93.10;;;19.21;60.92;99766.53;5056006;28;20052;-77
2022/10/18 01:52:32;;;;;;;13.10;7.82;;;19.20;93.00;;;19.22;60.67;99768.16;5067532;28;20076;-77
2022/10/18 01:54:57;;;;;;;10.05;7.13;;;19.20;92.90;;;19.21;60.49;99766.53;5073327;28;20032;-77
2022/10/18 01:57:38;;;;;;;10.25;7.07;;;19.20;92.90;;;19.19;60.55;99767.97;5053211;28;20074;-78
2022/10/18 02:00:26;;;;;;;8.00;6.97;;;19.20;92.90;;;19.18;61.46;99772.63;5068655;28;20056;-78
2022/10/18 02:03:21;;;;;;;10.25;7.43;;;19.20;93.10;;;19.18;61.61;99761.63;5068666;28;20120;-78
2022/10/18 02:06:05;;;;;;;10.00;7.03;;;19.20;93.10;;;19.19;61.12;99767.97;5044476;28;20372;-78
2022/10/18 02:08:48;;;;;;;10.55;7.30;;;19.20;93.00;;;19.20;60.69;99753.09;5085975;28;20212;-78
2022/10/18 02:11:14;;;;;;;13.10;7.28;;;19.20;92.90;;;19.17;60.70;99754.53;5072128;28;20121;-78
2022/10/18 02:13:54;;;;;;;12.45;8.25;;;19.20;93.20;;;19.16;61.09;99760.31;5054067;28;20036;-78
2022/10/18 02:16:34;;;;;;;13.15;7.38;;;19.20;93.00;;;19.18;61.55;99761.63;5067604;28;20032;-78
2022/10/18 02:19:14;;;;;;;11.35;8.13;;;19.20;93.20;;;19.17;61.55;99753.72;5067065;28;20041;-78
2022/10/18 02:21:42;;;;;;;13.07;7.70;;;19.20;93.20;;;19.16;61.08;99752.91;5091048;28;20038;-78
2022/10/18 02:24:10;;;;;;;9.07;7.68;;;19.20;93.00;;;19.19;60.78;99751.47;5057921;28;20480;-78
2022/10/18 02:26:36;;;;;;;10.82;7.25;;;19.10;92.90;;;19.15;60.68;99751.25;5063748;28;20033;-78
2022/10/18 02:29:02;;;;;;;9.63;7.07;;;19.20;92.80;;;19.16;60.55;99746.56;5067928;28;20058;-78
2022/10/18 02:31:34;;;;;;;7.82;5.85;;;19.10;92.80;;;19.18;61.39;99747.06;5079044;28;20465;-78
2022/10/18 02:34:21;;;;;;;;;;;19.10;93.00;;;19.17;61.36;99748.22;5074609;28;20040;-78
2022/10/18 03:44:38;;;;;;;11.55;6.32;;;19.10;93.10;;;19.05;60.94;99741.28;5087309;28;21004;-80
2022/10/18 03:47:05;;;;;;;9.82;6.93;;;19.10;92.90;;;19.04;60.55;99741.59;5080137;28;20050;-79
2022/10/18 03:49:30;;;;;;;8.52;6.68;;;19.00;92.90;;;19.05;60.79;99740.47;5056236;28;20035;-79
2022/10/18 03:51:57;;;;;;;12.95;6.65;;;19.00;92.90;;;19.04;61.38;99741.59;5067547;28;20063;-79
2022/10/18 03:54:23;;;;;;;11.55;6.47;;;19.00;93.20;;;19.04;60.47;99741.59;5051629;28;20081;-80
2022/10/18 03:56:49;;;;;;;7.95;6.22;;;19.00;92.70;;;19.03;60.40;99742.72;5054178;28;20521;-80
2022/10/18 03:59:16;;;;;;;9.60;5.95;;;19.00;92.70;;;19.04;60.02;99745.16;5051257;28;20040;-80
2022/10/18 04:01:42;;;;;;;9.15;6.63;;;19.00;92.60;;;19.07;59.58;99743.72;5048079;28;20040;-80
2022/10/18 04:04:08;;;;;;;9.00;6.32;;;19.00;92.50;;;19.01;61.02;99745.78;5063761;28;20551;-80
2022/10/18 04:06:34;;;;;;;9.38;6.72;;;19.00;93.00;;;19.04;61.29;99741.59;5061755;28;20046;-80
2022/10/18 04:09:00;;;;;;;8.07;5.82;;;19.00;93.10;;;19.07;61.02;99743.72;5078148;28;20033;-80
2022/10/18 04:11:26;;;;;;;8.20;5.63;;;19.00;93.00;;;19.04;60.11;99747.91;5065675;28;20035;-80
2022/10/18 04:13:53;;;;;;;8.82;6.70;;;19.00;92.60;;;19.06;59.29;99751.19;5054867;28;20046;-80
2022/10/18 04:16:19;;;;;;;7.20;5.95;;;19.00;92.50;;;19.04;59.00;99750.66;5060135;28;20040;-80
2022/10/18 04:18:46;;;;;;;7.35;5.85;;;19.00;92.30;;;19.04;59.36;99750.66;5062131;28;20040;-80
2022/10/18 04:21:12;;;;;;;7.50;6.32;;;19.00;92.40;;;19.04;60.57;99750.66;5061045;28;20040;-80
2022/10/18 04:23:38;;;;;;;9.63;6.35;;;19.00;92.80;;;19.01;60.65;99747.72;5079161;28;20404;-79
2022/10/18 04:26:04;;;;;;;7.50;5.80;;;19.00;92.90;;;18.99;60.57;99750.75;5063454;28;20117;-80
2022/10/18 04:28:30;;;;;;;12.45;6.22;;;19.00;92.70;;;19.01;59.52;99742.22;5064299;28;20036;-77
2022/10/18 04:30:56;;;;;;;8.18;6.40;;;19.00;92.50;;;19.02;59.11;99741.09;5060657;28;20070;-77
2022/10/18 04:33:22;;;;;;;9.20;6.13;;;19.00;92.30;;;19.03;58.62;99748.19;5062913;28;20495;-77
2022/10/18 04:35:51;;;;;;;11.00;7.18;;;19.00;92.10;;;19.02;59.85;99747.41;5065350;28;20175;-77
2022/10/18 04:38:19;;;;;;;8.52;6.35;;;19.00;92.60;;;19.03;60.06;99742.72;5033519;28;20044;-77
2022/10/18 04:40:45;;;;;;;7.75;5.85;;;19.00;92.70;;;19.02;60.27;99741.91;5075493;28;20040;-77
2022/10/18 04:43:11;;;;;;;8.25;5.55;;;19.00;92.70;;;19.04;59.12;99744.34;5066349;28;20046;-77
2022/10/18 04:45:37;;;;;;;8.02;5.97;;;19.00;92.40;;;19.03;58.90;99748.19;5078555;28;20052;-77
2022/10/18 04:48:04;;;;;;;9.55;6.15;;;19.00;92.20;;;19.02;58.55;99747.41;5026939;28;20037;-77
2022/10/18 04:50:30;;;;;;;7.65;6.18;;;19.00;92.10;;;19.00;58.73;99748.81;5045643;28;20049;-76
2022/10/18 04:52:58;;;;;;;7.55;5.35;;;19.00;92.10;;;19.01;59.73;99758.72;5048146;28;20055;-76
2022/10/18 04:55:25;;;;;;;10.75;6.60;;;19.00;92.50;;;19.01;59.81;99758.72;5065421;28;20051;-76
2022/10/18 04:57:51;;;;;;;10.43;6.65;;;19.00;92.60;;;18.97;59.62;99757.69;5045024;28;20416;-77
2022/10/18 05:00:18;;;;;;;9.02;5.93;;;19.00;92.50;;;18.99;58.92;99758.22;5064021;28;20548;-77
2022/10/18 05:02:44;;;;;;;6.60;5.38;;;18.90;92.10;;;18.98;58.34;99762.06;5032650;28;20044;-77
2022/10/18 05:05:10;;;;;;;14.27;5.90;;;19.00;92.50;;;18.98;58.05;99756.56;5044250;28;20074;-76
2022/10/18 05:07:36;;;;;;;8.05;5.55;;;19.00;92.10;;;18.99;58.22;99760.97;5062314;28;20041;-76
2022/10/18 05:10:03;;;;;;;8.63;6.95;;;19.00;92.10;;;18.94;59.31;99761.06;5060570;28;20040;-77
2022/10/18 05:12:29;;;;;;;8.00;5.82;;;18.90;92.40;;;18.99;59.34;99758.22;5047678;28;20068;-77
2022/10/18 05:14:55;;;;;;;9.73;6.65;;;19.00;92.60;;;18.94;59.25;99766.56;5047463;28;20044;-76
2022/10/18 05:17:22;;;;;;;9.05;5.78;;;18.90;92.30;;;18.96;58.08;99769.81;5059545;28;20112;-77
2022/10/18 05:19:48;;;;;;;7.75;5.70;;;18.90;92.10;;;18.98;57.91;99773.91;5028483;28;20455;-77
2022/10/18 05:22:14;;;;;;;9.98;6.32;;;19.00;92.50;;;18.95;57.98;99768.97;5044980;28;20054;-77
2022/10/18 05:24:40;;;;;;;5.75;4.88;;;18.90;92.10;;;18.95;58.31;99779.97;5060479;28;20743;-77
2022/10/18 05:27:06;;;;;;;6.72;5.05;;;19.00;92.10;;;18.97;58.82;99776.94;5058136;28;20048;-77
2022/10/18 05:29:32;;;;;;;6.85;5.00;;;19.00;92.40;;;18.97;58.94;99761.25;5046902;28;20059;-78
2022/10/18 05:31:58;;;;;;;8.35;5.68;;;18.90;92.40;;;19.02;58.33;99755.66;5048745;28;20043;-78
2022/10/18 05:34:26;;;;;;;7.80;5.30;;;18.90;92.10;;;18.99;57.75;99758.22;5015853;28;20058;-79
2022/10/18 05:36:52;;;;;;;9.05;6.35;;;19.00;92.10;;;19.01;57.19;99758.72;5043111;28;20109;-79
2022/10/18 05:39:18;;;;;;;7.30;5.55;;;19.00;91.80;;;19.00;57.12;99757.06;5029675;28;20404;-79
2022/10/18 05:41:44;;;;;;;7.35;5.95;;;19.00;91.80;;;19.00;58.13;99763.38;5032458;28;20089;-79
2022/10/18 05:44:10;;;;;;;5.40;4.80;;;19.00;92.10;;;19.02;58.90;99761.16;5046071;28;20131;-79
2022/10/18 05:46:36;;;;;;;7.03;5.93;;;19.00;92.40;;;19.01;58.24;99766.97;5029556;28;20053;-79
2022/10/18 05:49:02;;;;;;;8.68;5.45;;;18.90;92.20;;;18.98;57.49;99770.31;5058889;28;20479;-79
2022/10/18 05:51:28;;;;;;;7.32;5.32;;;19.00;92.00;;;19.00;57.33;99762.56;5040264;28;20044;-78
2022/10/18 05:53:54;;;;;;;8.57;6.13;;;19.00;91.90;;;18.97;57.81;99764.00;5062825;28;20040;-79
2022/10/18 05:56:20;;;;;;;9.65;5.93;;;18.90;92.00;;;19.01;57.66;99765.03;5061279;28;20410;-79
2022/10/18 05:58:49;;;;;;;7.68;5.32;;;18.90;92.10;;;19.03;57.60;99759.19;5046129;28;20138;-79
2022/10/18 06:01:15;;;;;;;7.07;5.82;;;18.90;92.10;;;19.02;57.43;99771.34;5046244;28;20093;-79
2022/10/18 06:03:42;;;;;;;8.68;5.45;;;18.90;92.00;;;19.01;58.28;99761.47;5050379;28;20040;-79
2022/10/18 06:06:10;;;;;;;7.38;5.57;;;18.90;92.10;;;19.05;58.42;99765.22;5070745;28;20496;-79
2022/10/18 06:08:37;;;;;;;7.22;5.43;;;19.00;92.40;;;19.07;58.28;99762.97;5054592;28;20118;-79
2022/10/18 06:11:15;;;;;;;5.72;4.75;;;19.00;92.30;;;19.10;57.67;99767.88;5046908;28;20539;-79
2022/10/18 06:13:45;;;;;;;7.25;6.25;;;19.00;92.10;;;19.07;57.57;99765.72;5062790;28;20493;-79
2022/10/18 06:16:13;;;;;;;8.05;5.75;;;19.00;92.10;;;19.08;57.53;99768.19;5066389;28;20044;-79
2022/10/18 06:18:39;;;;;;;6.65;5.90;;;19.00;92.10;;;19.08;57.68;99764.59;5069383;28;20127;-79
2022/10/18 06:21:05;;;;;;;11.68;6.47;;;19.00;92.10;;;19.08;58.19;99762.69;5036148;28;20051;-79
2022/10/18 06:23:32;;;;;;;7.05;4.85;;;19.00;92.20;;;19.11;58.27;99765.91;5041735;28;20078;-79
2022/10/18 06:26:06;;;;;;;8.57;5.25;;;19.00;92.20;;;19.13;58.10;99761.75;5063573;28;20036;-79
2022/10/18 06:28:34;;;;;;;6.03;5.15;;;19.00;92.10;;;19.11;57.73;99764.00;5066578;28;20075;-79
2022/10/18 06:31:00;;;;;;;6.30;5.35;;;19.00;92.10;;;19.12;57.64;99762.06;5044143;28;20115;-79
2022/10/18 06:33:26;;;;;;;7.55;5.68;;;19.00;92.10;;;19.13;57.62;99778.25;5052261;28;20060;-79
2022/10/18 06:36:00;;;;;;;9.82;5.32;;;19.00;92.10;;;19.11;58.03;99774.16;5044086;28;20043;-79
2022/10/18 06:38:27;;;;;;;8.95;6.30;;;19.00;92.10;;;19.13;58.10;99770.00;5064400;28;20047;-79
2022/10/18 06:40:53;;;;;;;9.13;5.90;;;19.00;92.20;;;19.11;58.13;99772.25;5059211;28;20550;-79
2022/10/18 06:43:20;;;;;;;7.75;5.90;;;19.00;92.30;;;19.16;57.69;99763.06;5068503;28;20040;-79
2022/10/18 06:45:46;;;;;;;12.63;5.28;;;19.10;92.20;;;19.13;57.54;99761.75;5055594;28;20053;-79
2022/10/18 06:48:13;;;;;;;6.18;5.15;;;19.00;92.10;;;19.18;57.42;99763.56;5061790;28;20036;-79
2022/10/18 06:50:39;;;;;;;6.88;5.05;;;19.10;92.10;;;19.19;57.13;99762.47;5078598;28;20036;-79
2022/10/18 06:53:07;;;;;;;7.03;5.15;;;19.10;92.10;;;19.19;57.68;99768.78;5050229;28;20053;-79
2022/10/18 06:55:33;;;;;;;7.55;5.80;;;19.10;92.20;;;19.20;57.91;99770.41;5073081;28;20565;-79
2022/10/18 06:58:00;;;;;;;7.88;5.22;;;19.10;92.20;;;19.18;57.74;99766.31;5044945;28;20123;-79
2022/10/18 07:00:26;;;;;;;7.28;4.47;;;19.10;92.20;;;19.18;57.55;99769.88;5046631;28;20435;-79
2022/10/18 07:02:52;;;;;;;6.28;5.28;;;19.10;92.10;;;19.21;57.33;99772.03;5079758;28;20063;-79
2022/10/18 07:05:18;;;;;;;5.75;4.90;;;19.10;92.10;;;19.24;57.21;99768.66;5050882;28;20246;-79
2022/10/18 07:07:44;;;;;;;5.38;4.85;;;19.10;92.00;;;19.23;57.14;99769.81;5060610;28;20036;-79
2022/10/18 07:10:10;;;;;;;6.25;4.93;;;19.10;92.00;;;19.21;57.30;99766.53;5061882;28;20605;-79
2022/10/18 07:12:36;;;;;;;6.15;4.85;;;19.10;92.20;;;19.25;57.47;99767.53;5075360;28;20574;-79
2022/10/18 07:15:03;;;;;;;6.68;5.75;;;19.20;92.20;;;19.26;57.40;99768.38;5060102;28;20097;-79
2022/10/18 07:17:29;;;;;;;7.47;5.32;;;19.20;92.00;;;19.26;57.19;99760.94;5046751;28;20048;-79
2022/10/18 07:19:55;;;;;;;8.82;5.13;;;19.20;92.00;;;19.26;57.37;99763.69;5046163;28;20044;-79
2022/10/18 07:22:21;;;;;;;6.25;4.47;;;19.20;92.00;;;19.31;56.96;99754.50;5060797;28;20169;-79
2022/10/18 07:24:47;;;;;;;7.85;4.65;;;19.20;91.90;;;19.32;57.07;99760.81;5061380;28;20105;-79
2022/10/18 07:27:14;;;;;;;6.00;4.95;;;19.20;91.90;;;19.32;57.33;99753.38;5080705;28;20474;-79
2022/10/18 07:29:39;;;;;;;5.75;5.15;;;19.20;92.00;;;19.33;56.94;99755.00;5047621;28;20047;-79
2022/10/18 07:32:06;;;;;;;6.72;5.18;;;19.20;92.00;;;19.33;56.92;99760.50;5076312;28;20043;-79
2022/10/18 07:34:31;;;;;;;5.10;4.60;;;19.30;91.90;;;19.34;56.79;99753.09;5064665;28;20073;-79
2022/10/18 07:36:58;;;;;;;5.82;4.47;;;19.30;91.90;;;19.34;56.82;99758.59;5043716;28;20044;-79
2022/10/18 07:39:24;;;;;;;6.18;4.93;;;19.30;91.80;;;19.37;56.69;99756.03;5036079;28;20040;-79
2022/10/18 07:41:50;;;;;;;8.90;5.32;;;19.30;91.90;;;19.39;56.74;99747.47;5048176;28;20118;-79
2022/10/18 07:44:18;;;;;;;5.93;4.82;;;19.30;91.90;;;19.39;56.84;99745.53;5051962;28;20055;-79
2022/10/18 07:46:45;;;;;;;4.78;4.38;;;19.30;91.90;;;19.39;56.77;99750.22;5064504;28;20134;-79
2022/10/18 07:49:11;;;;;;;7.32;4.93;;;19.40;91.90;;;19.43;56.50;99751.22;5045473;28;20043;-79
2022/10/18 07:51:37;;;;;;;6.53;5.53;;;19.40;91.80;;;19.42;56.45;99749.59;5057744;28;20130;-79
2022/10/18 07:54:03;;;;;;;7.57;5.40;;;19.40;91.80;;;19.43;56.25;99742.97;5062842;28;20549;-79
2022/10/18 07:56:30;;;;;;;5.32;4.35;;;19.40;91.70;;;19.42;56.20;99744.91;5039157;28;20040;-79
2022/10/18 07:58:59;;;;;;;5.05;4.38;;;19.40;91.70;;;19.47;56.42;99746.72;5077276;28;20457;-79
2022/10/18 08:01:25;;;;;;;4.82;4.13;;;19.40;91.80;;;19.46;56.55;99745.91;5062662;28;20119;-79
2022/10/18 08:03:51;;;;;;;6.78;4.82;;;19.40;91.70;;;19.47;56.21;99736.53;5060636;28;20748;-79
2022/10/18 08:06:18;;;;;;;6.57;4.60;;;19.40;91.60;;;19.48;56.02;99743.66;5075921;28;20127;-79
2022/10/18 08:08:44;;;;;;;5.80;4.68;;;19.50;91.60;;;19.48;56.13;99738.16;5065969;28;20068;-79
2022/10/18 08:11:16;;;;;;;5.90;4.70;;;19.50;91.50;;;19.49;55.80;99738.97;5057531;28;20124;-79
2022/10/18 08:13:42;;;;;;;6.30;5.13;;;19.50;91.50;;;19.51;56.00;99748.56;5038298;28;20047;-79
2022/10/18 08:16:13;;;;;;;6.53;4.18;;;19.50;91.50;;;19.53;55.88;99743.53;5079422;28;20503;-79
2022/10/18 08:18:39;;;;;;;7.32;4.35;;;19.50;91.50;;;19.50;56.06;99738.66;5025763;28;20407;-79
2022/10/18 08:21:07;;;;;;;7.10;5.47;;;19.50;91.50;;;19.52;55.79;99739.16;5073231;28;20047;-79
2022/10/18 08:23:33;;;;;;;5.47;4.18;;;19.60;91.50;;;19.53;55.74;99734.47;5034980;28;20123;-79
2022/10/18 08:26:05;;;;;;;6.05;4.57;;;19.60;91.40;;;19.53;55.55;99732.53;5058216;28;20060;-79
2022/10/18 08:28:31;;;;;;;4.70;4.07;;;19.60;91.40;;;19.57;55.48;99729.19;5029420;28;20485;-79
2022/10/18 08:31:09;;;;;;;5.20;4.25;;;19.60;91.40;;;19.58;55.53;99726.09;5050632;28;20475;-79
2022/10/18 08:33:35;;;;;;;4.72;3.78;;;19.60;91.40;;;19.59;55.58;99722.25;5033134;28;20048;-79
2022/10/18 08:36:06;;;;;;;6.32;4.05;;;19.60;91.40;;;19.59;55.30;99716.72;5049231;28;20082;-79
2022/10/18 08:38:36;;;;;;;5.35;4.00;;;19.60;91.20;;;19.59;55.30;99716.72;5043292;28;20051;-79
2022/10/18 08:41:41;;;;;;;4.13;3.72;;;19.70;91.20;;;19.60;55.18;99714.78;5043156;28;20178;-79
2022/10/18 08:44:17;;;;;;;6.57;3.90;;;19.70;91.20;;;19.62;55.31;99715.28;5063860;28;20463;-79
2022/10/18 08:47:05;;;;;;;6.13;4.63;;;19.70;91.20;;;19.62;55.28;99707.84;5082524;28;20565;-79
2022/10/18 08:49:55;;;;;;;6.40;5.03;;;19.70;91.20;;;19.65;55.26;99701.72;5065116;28;20036;-79
2022/10/18 08:52:45;;;;;;;5.30;3.97;;;19.70;91.20;;;19.68;55.03;99708.56;5072190;28;20490;-79
2022/10/18 08:55:40;;;;;;;4.32;3.92;;;19.70;91.10;;;19.67;54.88;99688.50;5080728;28;20040;-79
2022/10/18 08:58:28;;;;;;;5.35;4.00;;;19.80;91.10;;;19.68;54.64;99687.34;5071871;28;20054;-78
2022/10/18 09:01:35;;;;;;;4.22;3.60;;;19.80;91.10;;;19.68;54.61;99687.34;5066628;28;20304;-79
2022/10/18 09:04:13;;;;;;;4.85;4.38;;;19.80;91.10;;;19.71;54.68;99686.72;5081939;28;20430;-79
2022/10/18 09:07:11;;;;;;;5.13;3.75;;;19.80;91.20;;;19.73;54.98;99686.41;5097515;28;20036;-79
2022/10/18 09:09:54;;;;;;;8.18;4.45;;;19.80;91.10;;;19.73;54.39;99684.47;5061821;28;20387;-79
2022/10/18 09:12:47;;;;;;;3.67;3.30;;;19.80;91.00;;;19.75;54.59;99675.09;5064954;28;20044;-79
2022/10/18 09:15:37;;;;;;;4.80;3.97;;;19.80;90.90;;;19.74;54.23;99677.03;5103043;28;20036;-79
2022/10/18 09:18:16;;;;;;;6.10;3.85;;;19.90;90.90;;;19.76;54.69;99668.47;5096267;28;20047;-79
2022/10/18 09:20:45;;;;;;;4.22;3.83;;;19.90;91.00;;;19.76;54.80;99672.03;5076657;28;20608;-79
2022/10/18 09:23:25;;;;;;;4.80;3.67;;;19.90;91.00;;;19.80;54.36;99663.97;5093481;28;20047;-79
2022/10/18 09:26:05;;;;;;;4.70;3.50;;;19.90;91.00;;;19.83;53.97;99649.56;5082517;28;20193;-79
2022/10/18 09:29:22;;;;;;;3.83;3.38;;;19.90;90.90;;;19.81;54.22;99652.63;5069837;28;20432;-79
2022/10/18 09:32:24;;;;;;;4.80;3.70;;;19.90;90.80;;;19.83;54.09;99653.13;5086890;28;20055;-79
2022/10/18 09:35:01;;;;;;;4.60;4.07;;;20.00;90.90;;;19.84;54.28;99652.00;5066989;28;20454;-79
2022/10/18 09:37:29;;;;;;;4.65;3.75;;;19.90;90.90;;;19.84;54.50;99648.44;5063968;27;20070;-79
2022/10/18 09:40:18;;;;;;;5.22;4.07;;;20.00;91.00;;;19.84;53.98;99651.19;5050052;28;20043;-79
2022/10/18 09:43:25;;;;;;;3.58;3.28;;;20.00;90.90;;;19.87;53.99;99645.88;5070602;28;20090;-79
2022/10/18 09:45:52;;;;;;;3.90;3.22;;;20.00;90.80;;;19.88;53.89;99649.44;5006060;28;20075;-79
2022/10/18 09:48:39;;;;;;;6.75;4.03;;;20.00;90.80;;;19.92;53.39;99639.41;5052237;28;20559;-79
2022/10/18 09:51:23;;;;;;;4.00;3.63;;;20.00;90.70;;;19.93;53.82;99638.28;5082261;27;20482;-79
2022/10/18 09:53:59;;;;;;;5.07;3.83;;;20.00;90.90;;;19.95;53.83;99638.78;5071527;27;20122;-79
2022/10/18 09:56:33;;;;;;;3.88;3.47;;;20.00;90.90;;;19.96;53.67;99626.63;5101686;27;20042;-79
2022/10/18 09:59:00;;;;;;;5.13;4.00;;;20.00;90.80;;;19.93;53.55;99633.59;5082387;28;20068;-79
2022/10/18 10:01:28;;;;;;;4.93;3.90;;;20.00;90.70;;;20.00;53.52;99627.66;5063845;28;20514;-79
2022/10/18 10:03:54;;;;;;;3.88;3.25;;;20.10;90.70;;;19.98;53.47;99629.09;5070249;28;20616;-79
2022/10/18 10:06:31;;;;;;;4.68;3.88;;;20.10;90.60;;;20.00;53.47;99624.06;5069377;28;20040;-79
2022/10/18 10:09:14;;;;;;;4.50;4.05;;;20.10;90.70;;;19.99;53.73;99622.44;5071359;28;20119;-79
2022/10/18 10:11:44;;;;;;;3.85;3.47;;;20.10;90.80;;;19.95;53.86;99614.81;5084097;27;20040;-79
2022/10/18 10:14:29;;;;;;;5.03;3.85;;;20.00;91.10;;;20.04;53.22;99612.09;5085788;27;20122;-79
2022/10/18 10:17:02;;;;;;;4.93;3.83;;;20.10;90.70;;;20.05;53.29;99602.72;5069576;28;20043;-79
2022/10/18 10:20:10;;;;;;;4.15;3.00;;;20.10;90.60;;;20.03;53.16;99609.69;5069228;28;20503;-79
2022/10/18 10:22:40;;;;;;;3.22;2.88;;;20.10;90.60;;;20.00;53.46;99583.59;5076017;27;20509;-79
2022/10/18 10:25:06;;;;;;;4.13;3.25;;;20.10;90.60;;;20.02;53.51;99595.06;5080290;28;20122;-79
2022/10/18 10:27:43;;;;;;;3.67;3.00;;;20.20;90.70;;;20.08;53.18;99593.00;5068535;28;20039;-79
2022/10/18 10:30:33;;;;;;;3.75;2.75;;;20.20;90.70;;;20.11;53.23;99581.34;5053354;28;20638;-79
2022/10/18 10:33:00;;;;;;;4.35;3.58;;;20.20;90.60;;;20.11;53.15;99581.34;5078768;28;20495;-79
2022/10/18 10:35:36;;;;;;;3.58;3.25;;;20.20;91.00;;;20.11;52.99;99573.91;5071708;27;20114;-79
2022/10/18 10:38:02;;;;;;;3.78;3.22;;;20.10;90.60;;;20.09;53.13;99570.66;5070541;27;20051;-79
2022/10/18 10:40:51;;;;;;;5.63;3.50;;;20.20;90.60;;;20.06;53.25;99571.28;5057160;27;20636;-79
2022/10/18 10:43:25;;;;;;;2.97;2.78;;;20.20;90.60;;;20.07;53.31;99574.84;5054458;28;20051;-79
2022/10/18 10:46:04;;;;;;;3.58;3.28;;;20.20;90.70;;;20.05;52.95;99568.84;5072945;28;20132;-79
2022/10/18 10:48:51;;;;;;;3.28;2.72;;;20.20;90.50;;;20.04;53.28;99562.53;5052175;27;20039;-79
2022/10/18 10:51:35;;;;;;;4.75;3.00;;;20.20;90.50;;;20.10;53.11;99561.28;5069826;28;20463;-79
2022/10/18 10:54:20;;;;;;;4.25;2.85;;;20.30;90.50;;;20.09;53.40;99548.63;5070189;28;20669;-79
2022/10/18 10:57:03;;;;;;;3.08;2.83;;;20.30;90.50;;;20.15;53.13;99552.06;5055214;28;20046;-79
2022/10/18 10:59:54;;;;;;;4.07;3.10;;;20.30;90.50;;;20.16;53.02;99546.22;5074055;27;20043;-79
2022/10/18 11:02:34;;;;;;;4.90;3.17;;;20.30;90.60;;;20.14;52.96;99545.72;5066580;27;20123;-79
2022/10/18 11:05:22;;;;;;;5.07;2.85;;;20.20;90.50;;;20.14;53.15;99540.19;5054084;27;20036;-79
2022/10/18 11:07:50;;;;;;;3.55;2.85;;;20.30;90.50;;;20.14;53.13;99528.38;5062547;28;20166;-79
2022/10/18 11:10:22;;;;;;;3.15;2.85;;;20.30;90.50;;;20.14;53.06;99522.88;5069454;28;20494;-78
2022/10/18 11:13:22;;;;;;;3.92;3.47;;;20.30;90.50;;;20.25;52.86;99513.19;5064757;28;20456;-79
2022/10/18 11:15:52;;;;;;;7.63;3.33;;;20.40;90.50;;;20.29;52.64;99510.59;5075270;27;20384;-79
2022/10/18 11:18:34;;;;;;;5.13;2.97;;;20.30;90.50;;;20.24;52.69;99516.25;5043840;28;20044;-79
2022/10/18 11:21:10;;;;;;;3.78;3.35;;;20.30;90.50;;;20.19;52.75;99508.94;5069248;28;20051;-79
2022/10/18 11:23:40;;;;;;;2.83;2.63;;;20.40;90.50;;;20.17;52.91;99506.53;5063535;28;20635;-79
2022/10/18 11:26:12;;;;;;;2.75;2.53;;;20.40;90.50;;;20.28;52.70;99500.72;5082318;27;20450;-78
2022/10/18 11:29:10;;;;;;;3.65;2.88;;;20.40;90.40;;;20.22;52.94;99496.47;5082339;28;20051;-78
2022/10/18 11:31:58;;;;;;;4.22;2.90;;;20.40;90.50;;;20.25;53.14;99495.84;5077789;28;20052;-79
2022/10/18 11:35:00;;;;;;;3.65;2.95;;;20.30;90.50;;;20.30;52.71;99491.00;5095626;27;20491;-79
2022/10/18 11:37:57;;;;;;;3.22;2.83;;;20.40;90.50;;;20.28;52.62;99485.00;5083522;27;20547;-79
2022/10/18 11:40:44;;;;;;;4.00;2.88;;;20.50;90.30;;;20.28;52.72;99481.44;5083598;28;20046;-79
2022/10/18 11:43:23;;;;;;;2.67;2.47;;;20.50;90.30;;;20.35;52.60;99479.84;5098012;27;20042;-79
2022/10/18 11:46:26;;;;;;;4.00;3.13;;;20.50;90.30;;;20.38;52.63;99470.91;5081752;27;20063;-79
2022/10/18 11:49:08;;;;;;;4.22;2.78;;;20.50;90.30;;;20.32;52.83;99468.63;5088579;28;20279;-79
2022/10/18 11:51:37;;;;;;;4.82;2.88;;;20.50;90.30;;;20.34;52.50;99463.63;5065998;28;20086;-79